Time;durP1;ratioP1;P1;durP2;ratioP2;P2;SDS_P1;SDS_P2;PMS_P1;PMS_P2;Temp;Humidity;BMP_temperature;BMP_pressure;BME280_temperature;BME280_humidity;BME280_pressure;Samples;Min_cycle;Max_cycle;Signal;HPM_P1;HPM_P2
2022/04/05 00:00:42;;;;;;;13.2;10.05;;;;;;;3.75;100;94731.52;;;;
2022/04/05 00:01:43;;;;;;;13.2;10.05;;;;;;;3.75;100;94731.52;;;;
2022/04/05 00:02:43;;;;;;;13.2;10.05;;;;;;;3.75;100;94731.52;;;;
2022/04/05 00:03:44;;;;;;;13.2;10.05;;;;;;;3.75;100;94731.52;;;;
2022/04/05 00:04:45;;;;;;;13.2;10.05;;;;;;;3.75;100;94731.52;;;;
2022/04/05 00:05:45;;;;;;;13.2;10.05;;;;;;;3.75;100;94731.52;;;;
2022/04/05 00:06:46;;;;;;;13.2;10.05;;;;;;;3.75;100;94731.52;;;;
2022/04/05 00:07:46;;;;;;;13.2;10.05;;;;;;;3.75;100;94731.52;;;;
2022/04/05 00:08:47;;;;;;;13.2;10.05;;;;;;;3.75;100;94731.52;;;;
2022/04/05 00:09:47;;;;;;;12.35;9.349999;;;;;;;3.63;100;94735.02;;;;
2022/04/05 00:10:48;;;;;;;12.35;9.349999;;;;;;;3.63;100;94735.02;;;;
2022/04/05 00:11:48;;;;;;;12.35;9.349999;;;;;;;3.63;100;94735.02;;;;
2022/04/05 00:12:48;;;;;;;12.35;9.349999;;;;;;;3.63;100;94735.02;;;;
2022/04/05 00:13:49;;;;;;;12.35;9.349999;;;;;;;3.63;100;94735.02;;;;
2022/04/05 00:14:50;;;;;;;12.35;9.349999;;;;;;;3.63;100;94735.02;;;;
2022/04/05 00:15:50;;;;;;;12.35;9.349999;;;;;;;3.63;100;94735.02;;;;
2022/04/05 00:16:51;;;;;;;12.35;9.349999;;;;;;;3.63;100;94735.02;;;;
2022/04/05 00:17:51;;;;;;;12.35;9.349999;;;;;;;3.63;100;94735.02;;;;
2022/04/05 00:18:52;;;;;;;12.35;9.349999;;;;;;;3.63;100;94735.02;;;;
2022/04/05 00:19:53;;;;;;;12.35;9.349999;;;;;;;3.63;100;94735.02;;;;
2022/04/05 00:20:53;;;;;;;14.95;9.6;;;;;;;3.54;100;94715.73;;;;
2022/04/05 00:21:54;;;;;;;14.95;9.6;;;;;;;3.54;100;94715.73;;;;
2022/04/05 00:22:54;;;;;;;14.95;9.6;;;;;;;3.54;100;94715.73;;;;
2022/04/05 00:23:55;;;;;;;14.95;9.6;;;;;;;3.54;100;94715.73;;;;
2022/04/05 00:24:56;;;;;;;14.95;9.6;;;;;;;3.54;100;94715.73;;;;
2022/04/05 00:25:56;;;;;;;14.95;9.6;;;;;;;3.54;100;94715.73;;;;
2022/04/05 00:26:57;;;;;;;14.95;9.6;;;;;;;3.54;100;94715.73;;;;
2022/04/05 00:27:58;;;;;;;14.95;9.6;;;;;;;3.54;100;94715.73;;;;
2022/04/05 00:28:58;;;;;;;14.95;9.6;;;;;;;3.54;100;94715.73;;;;
2022/04/05 00:29:59;;;;;;;14.95;9.6;;;;;;;3.54;100;94715.73;;;;
2022/04/05 00:31:00;;;;;;;14.95;9.6;;;;;;;3.54;100;94715.73;;;;
2022/04/05 00:32:00;;;;;;;13.1;9.550001;;;;;;;3.58;100;94710.8;;;;
2022/04/05 00:33:00;;;;;;;13.1;9.550001;;;;;;;3.58;100;94710.8;;;;
2022/04/05 00:34:01;;;;;;;13.1;9.550001;;;;;;;3.58;100;94710.8;;;;
2022/04/05 00:35:02;;;;;;;13.1;9.550001;;;;;;;3.58;100;94710.8;;;;
2022/04/05 00:36:02;;;;;;;13.1;9.550001;;;;;;;3.58;100;94710.8;;;;
2022/04/05 00:37:04;;;;;;;13.1;9.550001;;;;;;;3.58;100;94710.8;;;;
2022/04/05 00:38:04;;;;;;;13.1;9.550001;;;;;;;3.58;100;94710.8;;;;
2022/04/05 00:39:05;;;;;;;13.1;9.550001;;;;;;;3.58;100;94710.8;;;;
2022/04/05 00:40:05;;;;;;;13.1;9.550001;;;;;;;3.58;100;94710.8;;;;
2022/04/05 00:41:08;;;;;;;13.1;9.550001;;;;;;;3.58;100;94710.8;;;;
2022/04/05 00:42:10;;;;;;;13.35;9.799999;;;;;;;3.58;100;94696.12;;;;
2022/04/05 00:43:10;;;;;;;13.35;9.799999;;;;;;;3.58;100;94696.12;;;;
2022/04/05 00:44:11;;;;;;;13.35;9.799999;;;;;;;3.58;100;94696.12;;;;
2022/04/05 00:45:15;;;;;;;13.35;9.799999;;;;;;;3.58;100;94696.12;;;;
2022/04/05 00:46:16;;;;;;;13.35;9.799999;;;;;;;3.58;100;94696.12;;;;
2022/04/05 00:47:16;;;;;;;13.35;9.799999;;;;;;;3.58;100;94696.12;;;;
2022/04/05 00:48:19;;;;;;;13.35;9.799999;;;;;;;3.58;100;94696.12;;;;
2022/04/05 00:49:28;;;;;;;13.35;9.799999;;;;;;;3.58;100;94696.12;;;;
2022/04/05 00:50:30;;;;;;;13.35;9.799999;;;;;;;3.58;100;94696.12;;;;
2022/04/05 00:51:34;;;;;;;13.35;9.799999;;;;;;;3.58;100;94696.12;;;;
2022/04/05 00:52:34;;;;;;;15;10.15;;;;;;;3.57;100;94682.45;;;;
2022/04/05 00:53:34;;;;;;;15;10.15;;;;;;;3.57;100;94682.45;;;;
2022/04/05 00:54:36;;;;;;;15;10.15;;;;;;;3.57;100;94682.45;;;;
2022/04/05 00:55:38;;;;;;;15;10.15;;;;;;;3.57;100;94682.45;;;;
2022/04/05 00:56:40;;;;;;;15;10.15;;;;;;;3.57;100;94682.45;;;;
2022/04/05 00:57:40;;;;;;;15;10.15;;;;;;;3.57;100;94682.45;;;;
2022/04/05 00:58:42;;;;;;;15;10.15;;;;;;;3.57;100;94682.45;;;;
2022/04/05 00:59:47;;;;;;;15;10.15;;;;;;;3.57;100;94682.45;;;;
2022/04/05 01:00:49;;;;;;;15;10.15;;;;;;;3.57;100;94682.45;;;;
2022/04/05 01:01:50;;;;;;;15;10.15;;;;;;;3.57;100;94682.45;;;;
2022/04/05 01:02:54;;;;;;;15;10.15;;;;;;;3.57;100;94682.45;;;;
2022/04/05 01:03:57;;;;;;;14.7;10.35;;;;;;;3.59;100;94658.54;;;;
2022/04/05 01:04:57;;;;;;;14.7;10.35;;;;;;;3.59;100;94658.54;;;;
2022/04/05 01:05:58;;;;;;;14.7;10.35;;;;;;;3.59;100;94658.54;;;;
2022/04/05 01:07:01;;;;;;;14.7;10.35;;;;;;;3.59;100;94658.54;;;;
2022/04/05 01:08:04;;;;;;;14.7;10.35;;;;;;;3.59;100;94658.54;;;;
2022/04/05 01:09:07;;;;;;;14.7;10.35;;;;;;;3.59;100;94658.54;;;;
2022/04/05 01:10:07;;;;;;;14.7;10.35;;;;;;;3.59;100;94658.54;;;;
2022/04/05 01:11:08;;;;;;;14.7;10.35;;;;;;;3.59;100;94658.54;;;;
2022/04/05 01:12:09;;;;;;;14.7;10.35;;;;;;;3.59;100;94658.54;;;;
2022/04/05 01:13:13;;;;;;;14.7;10.35;;;;;;;3.59;100;94658.54;;;;
2022/04/05 01:14:13;;;;;;;13;9.799999;;;;;;;3.63;100;94666.96;;;;
2022/04/05 01:15:13;;;;;;;13;9.799999;;;;;;;3.63;100;94666.96;;;;
2022/04/05 01:16:14;;;;;;;13;9.799999;;;;;;;3.63;100;94666.96;;;;
2022/04/05 01:17:16;;;;;;;13;9.799999;;;;;;;3.63;100;94666.96;;;;
2022/04/05 01:18:17;;;;;;;13;9.799999;;;;;;;3.63;100;94666.96;;;;
2022/04/05 01:19:17;;;;;;;13;9.799999;;;;;;;3.63;100;94666.96;;;;
2022/04/05 01:20:18;;;;;;;13;9.799999;;;;;;;3.63;100;94666.96;;;;
2022/04/05 01:21:18;;;;;;;13;9.799999;;;;;;;3.63;100;94666.96;;;;
2022/04/05 01:22:19;;;;;;;13;9.799999;;;;;;;3.63;100;94666.96;;;;
2022/04/05 01:23:19;;;;;;;13;9.799999;;;;;;;3.63;100;94666.96;;;;
2022/04/05 01:24:21;;;;;;;13;9.799999;;;;;;;3.63;100;94666.96;;;;
2022/04/05 01:25:21;;;;;;;12.05;9.349999;;;;;;;3.77;100;94658.29;;;;
2022/04/05 01:26:22;;;;;;;12.05;9.349999;;;;;;;3.77;100;94658.29;;;;
2022/04/05 01:27:27;;;;;;;12.05;9.349999;;;;;;;3.77;100;94658.29;;;;
2022/04/05 01:28:28;;;;;;;12.05;9.349999;;;;;;;3.77;100;94658.29;;;;
2022/04/05 01:29:28;;;;;;;12.05;9.349999;;;;;;;3.77;100;94658.29;;;;
2022/04/05 01:30:29;;;;;;;12.05;9.349999;;;;;;;3.77;100;94658.29;;;;
2022/04/05 01:31:29;;;;;;;12.05;9.349999;;;;;;;3.77;100;94658.29;;;;
2022/04/05 01:32:30;;;;;;;12.05;9.349999;;;;;;;3.77;100;94658.29;;;;
2022/04/05 01:33:30;;;;;;;12.05;9.349999;;;;;;;3.77;100;94658.29;;;;
2022/04/05 01:34:31;;;;;;;12.05;9.349999;;;;;;;3.77;100;94658.29;;;;
2022/04/05 01:35:34;;;;;;;11.7;9.500001;;;;;;;3.83;100;94648.51;;;;
2022/04/05 01:36:34;;;;;;;11.7;9.500001;;;;;;;3.83;100;94648.51;;;;
2022/04/05 01:37:40;;;;;;;11.7;9.500001;;;;;;;3.83;100;94648.51;;;;
2022/04/05 01:38:41;;;;;;;11.7;9.500001;;;;;;;3.83;100;94648.51;;;;
2022/04/05 01:39:41;;;;;;;11.7;9.500001;;;;;;;3.83;100;94648.51;;;;
2022/04/05 01:40:43;;;;;;;11.7;9.500001;;;;;;;3.83;100;94648.51;;;;
2022/04/05 01:41:43;;;;;;;11.7;9.500001;;;;;;;3.83;100;94648.51;;;;
2022/04/05 01:42:45;;;;;;;11.7;9.500001;;;;;;;3.83;100;94648.51;;;;
2022/04/05 01:43:45;;;;;;;11.7;9.500001;;;;;;;3.83;100;94648.51;;;;
2022/04/05 01:44:46;;;;;;;11.7;9.500001;;;;;;;3.83;100;94648.51;;;;
2022/04/05 01:45:47;;;;;;;11.7;9.500001;;;;;;;3.83;100;94648.51;;;;
2022/04/05 01:46:47;;;;;;;11.05;8.5;;;;;;;3.84;100;94655.59;;;;
2022/04/05 01:47:48;;;;;;;11.05;8.5;;;;;;;3.84;100;94655.59;;;;
2022/04/05 01:48:50;;;;;;;11.05;8.5;;;;;;;3.84;100;94655.59;;;;
2022/04/05 01:49:51;;;;;;;11.05;8.5;;;;;;;3.84;100;94655.59;;;;
2022/04/05 01:50:51;;;;;;;11.05;8.5;;;;;;;3.84;100;94655.59;;;;
2022/04/05 01:51:52;;;;;;;11.05;8.5;;;;;;;3.84;100;94655.59;;;;
2022/04/05 01:52:52;;;;;;;11.05;8.5;;;;;;;3.84;100;94655.59;;;;
2022/04/05 01:53:57;;;;;;;11.05;8.5;;;;;;;3.84;100;94655.59;;;;
2022/04/05 01:54:57;;;;;;;11.05;8.5;;;;;;;3.84;100;94655.59;;;;
2022/04/05 01:55:58;;;;;;;11.05;8.5;;;;;;;3.84;100;94655.59;;;;
2022/04/05 01:56:59;;;;;;;12.2;8.15;;;;;;;3.83;100;94642.78;;;;
2022/04/05 01:57:59;;;;;;;12.2;8.15;;;;;;;3.83;100;94642.78;;;;
2022/04/05 01:59:00;;;;;;;12.2;8.15;;;;;;;3.83;100;94642.78;;;;
2022/04/05 02:00:02;;;;;;;12.2;8.15;;;;;;;3.83;100;94642.78;;;;
2022/04/05 02:01:04;;;;;;;12.2;8.15;;;;;;;3.83;100;94642.78;;;;
2022/04/05 02:02:04;;;;;;;12.2;8.15;;;;;;;3.83;100;94642.78;;;;
2022/04/05 02:03:06;;;;;;;12.2;8.15;;;;;;;3.83;100;94642.78;;;;
2022/04/05 02:04:07;;;;;;;12.2;8.15;;;;;;;3.83;100;94642.78;;;;
2022/04/05 02:05:10;;;;;;;12.2;8.15;;;;;;;3.83;100;94642.78;;;;
2022/04/05 02:06:11;;;;;;;12.2;8.15;;;;;;;3.83;100;94642.78;;;;
2022/04/05 02:07:11;;;;;;;12.2;8.15;;;;;;;3.83;100;94642.78;;;;
2022/04/05 02:08:14;;;;;;;12.2;8.15;;;;;;;3.83;100;94642.78;;;;
2022/04/05 02:09:14;;;;;;;12.2;8.15;;;;;;;3.83;100;94642.78;;;;
2022/04/05 02:10:16;;;;;;;12.2;8.15;;;;;;;3.83;100;94642.78;;;;
2022/04/05 02:11:17;;;;;;;12.2;8.15;;;;;;;3.83;100;94642.78;;;;
2022/04/05 02:12:17;;;;;;;12.2;8.15;;;;;;;3.83;100;94642.78;;;;
2022/04/05 02:13:18;;;;;;;12.2;8.15;;;;;;;3.83;100;94642.78;;;;
2022/04/05 02:14:19;;;;;;;12.2;8.15;;;;;;;3.83;100;94642.78;;;;
2022/04/05 02:15:20;;;;;;;12.2;8.15;;;;;;;3.83;100;94642.78;;;;
2022/04/05 02:16:20;;;;;;;12.2;8.15;;;;;;;3.83;100;94642.78;;;;
2022/04/05 02:17:21;;;;;;;12.2;8.15;;;;;;;3.83;100;94642.78;;;;
2022/04/05 02:18:21;;;;;;;12;8.55;;;;;;;3.64;100;94605.35;;;;
2022/04/05 02:19:22;;;;;;;12;8.55;;;;;;;3.64;100;94605.35;;;;
2022/04/05 02:20:22;;;;;;;12;8.55;;;;;;;3.64;100;94605.35;;;;
2022/04/05 02:21:23;;;;;;;12;8.55;;;;;;;3.64;100;94605.35;;;;
2022/04/05 02:22:24;;;;;;;12;8.55;;;;;;;3.64;100;94605.35;;;;
2022/04/05 02:23:24;;;;;;;12;8.55;;;;;;;3.64;100;94605.35;;;;
2022/04/05 02:24:25;;;;;;;12;8.55;;;;;;;3.64;100;94605.35;;;;
2022/04/05 02:25:26;;;;;;;12;8.55;;;;;;;3.64;100;94605.35;;;;
2022/04/05 02:26:26;;;;;;;12;8.55;;;;;;;3.64;100;94605.35;;;;
2022/04/05 02:27:27;;;;;;;12;8.55;;;;;;;3.64;100;94605.35;;;;
2022/04/05 02:28:28;;;;;;;12;8.55;;;;;;;3.64;100;94605.35;;;;
2022/04/05 02:29:28;;;;;;;10;7.95;;;;;;;3.68;100;94591.49;;;;
2022/04/05 02:30:29;;;;;;;10;7.95;;;;;;;3.68;100;94591.49;;;;
2022/04/05 02:31:30;;;;;;;10;7.95;;;;;;;3.68;100;94591.49;;;;
2022/04/05 02:32:30;;;;;;;10;7.95;;;;;;;3.68;100;94591.49;;;;
2022/04/05 02:33:31;;;;;;;10;7.95;;;;;;;3.68;100;94591.49;;;;
2022/04/05 02:34:31;;;;;;;10;7.95;;;;;;;3.68;100;94591.49;;;;
2022/04/05 02:35:32;;;;;;;10;7.95;;;;;;;3.68;100;94591.49;;;;
2022/04/05 02:36:32;;;;;;;10;7.95;;;;;;;3.68;100;94591.49;;;;
2022/04/05 02:37:33;;;;;;;10;7.95;;;;;;;3.68;100;94591.49;;;;
2022/04/05 02:38:33;;;;;;;10;7.95;;;;;;;3.68;100;94591.49;;;;
2022/04/05 02:39:34;;;;;;;10;7.95;;;;;;;3.68;100;94591.49;;;;
2022/04/05 02:40:35;;;;;;;8.25;6.45;;;;;;;3.83;100;94578.29;;;;
2022/04/05 02:41:36;;;;;;;8.25;6.45;;;;;;;3.83;100;94578.29;;;;
2022/04/05 02:42:39;;;;;;;8.25;6.45;;;;;;;3.83;100;94578.29;;;;
2022/04/05 02:43:40;;;;;;;8.25;6.45;;;;;;;3.83;100;94578.29;;;;
2022/04/05 02:44:41;;;;;;;8.25;6.45;;;;;;;3.83;100;94578.29;;;;
2022/04/05 02:45:41;;;;;;;8.25;6.45;;;;;;;3.83;100;94578.29;;;;
2022/04/05 02:46:42;;;;;;;8.25;6.45;;;;;;;3.83;100;94578.29;;;;
2022/04/05 02:47:42;;;;;;;8.25;6.45;;;;;;;3.83;100;94578.29;;;;
2022/04/05 02:48:43;;;;;;;8.25;6.45;;;;;;;3.83;100;94578.29;;;;
2022/04/05 02:49:44;;;;;;;8.25;6.45;;;;;;;3.83;100;94578.29;;;;
2022/04/05 02:50:44;;;;;;;8.749998;6.5;;;;;;;4;100;94574.5;;;;
2022/04/05 02:51:45;;;;;;;8.749998;6.5;;;;;;;4;100;94574.5;;;;
2022/04/05 02:52:45;;;;;;;8.749998;6.5;;;;;;;4;100;94574.5;;;;
2022/04/05 02:53:46;;;;;;;8.749998;6.5;;;;;;;4;100;94574.5;;;;
2022/04/05 02:54:47;;;;;;;8.749998;6.5;;;;;;;4;100;94574.5;;;;
2022/04/05 02:55:48;;;;;;;8.749998;6.5;;;;;;;4;100;94574.5;;;;
2022/04/05 02:56:48;;;;;;;8.749998;6.5;;;;;;;4;100;94574.5;;;;
2022/04/05 02:57:50;;;;;;;8.749998;6.5;;;;;;;4;100;94574.5;;;;
2022/04/05 02:58:50;;;;;;;8.749998;6.5;;;;;;;4;100;94574.5;;;;
2022/04/05 02:59:51;;;;;;;8.749998;6.5;;;;;;;4;100;94574.5;;;;
2022/04/05 03:00:52;;;;;;;8.749998;6.5;;;;;;;4;100;94574.5;;;;
2022/04/05 03:01:52;;;;;;;8.550001;6.65;;;;;;;4.18;100;94562.17;;;;
2022/04/05 03:02:53;;;;;;;8.550001;6.65;;;;;;;4.18;100;94562.17;;;;
2022/04/05 03:03:53;;;;;;;8.550001;6.65;;;;;;;4.18;100;94562.17;;;;
2022/04/05 03:04:54;;;;;;;8.550001;6.65;;;;;;;4.18;100;94562.17;;;;
2022/04/05 03:05:55;;;;;;;8.550001;6.65;;;;;;;4.18;100;94562.17;;;;
2022/04/05 03:06:55;;;;;;;8.550001;6.65;;;;;;;4.18;100;94562.17;;;;
2022/04/05 03:07:56;;;;;;;8.550001;6.65;;;;;;;4.18;100;94562.17;;;;
2022/04/05 03:08:58;;;;;;;8.550001;6.65;;;;;;;4.18;100;94562.17;;;;
2022/04/05 03:09:58;;;;;;;8.550001;6.65;;;;;;;4.18;100;94562.17;;;;
2022/04/05 03:10:59;;;;;;;8.550001;6.65;;;;;;;4.18;100;94562.17;;;;
2022/04/05 03:11:59;;;;;;;7.05;5.7;;;;;;;4.41;100;94561.52;;;;
2022/04/05 03:13:00;;;;;;;7.05;5.7;;;;;;;4.41;100;94561.52;;;;
2022/04/05 03:14:01;;;;;;;7.05;5.7;;;;;;;4.41;100;94561.52;;;;
2022/04/05 03:15:01;;;;;;;7.05;5.7;;;;;;;4.41;100;94561.52;;;;
2022/04/05 03:16:03;;;;;;;7.05;5.7;;;;;;;4.41;100;94561.52;;;;
2022/04/05 03:17:04;;;;;;;7.05;5.7;;;;;;;4.41;100;94561.52;;;;
2022/04/05 03:18:04;;;;;;;7.05;5.7;;;;;;;4.41;100;94561.52;;;;
2022/04/05 03:19:05;;;;;;;7.05;5.7;;;;;;;4.41;100;94561.52;;;;
2022/04/05 03:20:06;;;;;;;7.05;5.7;;;;;;;4.41;100;94561.52;;;;
2022/04/05 03:21:08;;;;;;;7.05;5.7;;;;;;;4.41;100;94561.52;;;;
2022/04/05 03:22:08;;;;;;;7.05;5.7;;;;;;;4.41;100;94561.52;;;;
2022/04/05 03:23:09;;;;;;;7.05;5.7;;;;;;;4.41;100;94561.52;;;;
2022/04/05 03:24:09;;;;;;;7.05;5.7;;;;;;;4.41;100;94561.52;;;;
2022/04/05 03:25:10;;;;;;;7.05;5.7;;;;;;;4.41;100;94561.52;;;;
2022/04/05 03:26:11;;;;;;;7.05;5.7;;;;;;;4.41;100;94561.52;;;;
2022/04/05 03:27:11;;;;;;;7.05;5.7;;;;;;;4.41;100;94561.52;;;;
2022/04/05 03:28:12;;;;;;;7.05;5.7;;;;;;;4.41;100;94561.52;;;;
2022/04/05 03:29:12;;;;;;;7.05;5.7;;;;;;;4.41;100;94561.52;;;;
2022/04/05 03:30:13;;;;;;;7.05;5.7;;;;;;;4.41;100;94561.52;;;;
2022/04/05 03:31:15;;;;;;;7.05;5.7;;;;;;;4.41;100;94561.52;;;;
2022/04/05 03:32:16;;;;;;;7.05;5.7;;;;;;;4.41;100;94561.52;;;;
2022/04/05 03:33:16;;;;;;;7.05;5.7;;;;;;;4.41;100;94561.52;;;;
2022/04/05 03:34:17;;;;;;;6.599999;5.900001;;;;;;;4.67;100;94564.01;;;;
2022/04/05 03:35:17;;;;;;;6.599999;5.900001;;;;;;;4.67;100;94564.01;;;;
2022/04/05 03:36:18;;;;;;;6.599999;5.900001;;;;;;;4.67;100;94564.01;;;;
2022/04/05 03:37:18;;;;;;;6.599999;5.900001;;;;;;;4.67;100;94564.01;;;;
2022/04/05 03:38:19;;;;;;;6.599999;5.900001;;;;;;;4.67;100;94564.01;;;;
2022/04/05 03:39:19;;;;;;;6.599999;5.900001;;;;;;;4.67;100;94564.01;;;;
2022/04/05 03:40:20;;;;;;;6.599999;5.900001;;;;;;;4.67;100;94564.01;;;;
2022/04/05 03:41:21;;;;;;;6.599999;5.900001;;;;;;;4.67;100;94564.01;;;;
2022/04/05 03:42:22;;;;;;;6.599999;5.900001;;;;;;;4.67;100;94564.01;;;;
2022/04/05 03:43:22;;;;;;;6.599999;5.900001;;;;;;;4.67;100;94564.01;;;;
2022/04/05 03:44:23;;;;;;;8.249999;6.449999;;;;;;;4.77;100;94565.77;;;;
2022/04/05 03:45:23;;;;;;;8.249999;6.449999;;;;;;;4.77;100;94565.77;;;;
2022/04/05 03:46:24;;;;;;;8.249999;6.449999;;;;;;;4.77;100;94565.77;;;;
2022/04/05 03:47:26;;;;;;;8.249999;6.449999;;;;;;;4.77;100;94565.77;;;;
2022/04/05 03:48:26;;;;;;;8.249999;6.449999;;;;;;;4.77;100;94565.77;;;;
2022/04/05 03:49:27;;;;;;;8.249999;6.449999;;;;;;;4.77;100;94565.77;;;;
2022/04/05 03:50:28;;;;;;;8.249999;6.449999;;;;;;;4.77;100;94565.77;;;;
2022/04/05 03:51:29;;;;;;;8.249999;6.449999;;;;;;;4.77;100;94565.77;;;;
2022/04/05 03:52:29;;;;;;;8.249999;6.449999;;;;;;;4.77;100;94565.77;;;;
2022/04/05 03:53:30;;;;;;;8.249999;6.449999;;;;;;;4.77;100;94565.77;;;;
2022/04/05 03:54:30;;;;;;;8.249999;6.449999;;;;;;;4.77;100;94565.77;;;;
2022/04/05 03:55:31;;;;;;;7.95;7.149999;;;;;;;4.84;100;94550.9;;;;
2022/04/05 03:56:31;;;;;;;7.95;7.149999;;;;;;;4.84;100;94550.9;;;;
2022/04/05 03:57:32;;;;;;;7.95;7.149999;;;;;;;4.84;100;94550.9;;;;
2022/04/05 03:58:32;;;;;;;7.95;7.149999;;;;;;;4.84;100;94550.9;;;;
2022/04/05 03:59:33;;;;;;;7.95;7.149999;;;;;;;4.84;100;94550.9;;;;
2022/04/05 04:00:34;;;;;;;7.95;7.149999;;;;;;;4.84;100;94550.9;;;;
2022/04/05 04:01:34;;;;;;;7.95;7.149999;;;;;;;4.84;100;94550.9;;;;
2022/04/05 04:02:36;;;;;;;7.95;7.149999;;;;;;;4.84;100;94550.9;;;;
2022/04/05 04:03:36;;;;;;;7.95;7.149999;;;;;;;4.84;100;94550.9;;;;
2022/04/05 04:04:38;;;;;;;7.95;7.149999;;;;;;;4.84;100;94550.9;;;;
2022/04/05 04:05:38;;;;;;;9.200001;6.95;;;;;;;4.94;100;94547.24;;;;
2022/04/05 04:06:39;;;;;;;9.200001;6.95;;;;;;;4.94;100;94547.24;;;;
2022/04/05 04:07:39;;;;;;;9.200001;6.95;;;;;;;4.94;100;94547.24;;;;
2022/04/05 04:08:40;;;;;;;9.200001;6.95;;;;;;;4.94;100;94547.24;;;;
2022/04/05 04:09:41;;;;;;;9.200001;6.95;;;;;;;4.94;100;94547.24;;;;
2022/04/05 04:10:41;;;;;;;9.200001;6.95;;;;;;;4.94;100;94547.24;;;;
2022/04/05 04:11:42;;;;;;;9.200001;6.95;;;;;;;4.94;100;94547.24;;;;
2022/04/05 04:12:43;;;;;;;9.200001;6.95;;;;;;;4.94;100;94547.24;;;;
2022/04/05 04:13:43;;;;;;;9.200001;6.95;;;;;;;4.94;100;94547.24;;;;
2022/04/05 04:14:44;;;;;;;9.200001;6.95;;;;;;;4.94;100;94547.24;;;;
2022/04/05 04:15:44;;;;;;;9.200001;6.95;;;;;;;4.94;100;94547.24;;;;
2022/04/05 04:16:45;;;;;;;7;5.95;;;;;;;5.02;100;94532.22;;;;
2022/04/05 04:17:45;;;;;;;7;5.95;;;;;;;5.02;100;94532.22;;;;
2022/04/05 04:18:46;;;;;;;7;5.95;;;;;;;5.02;100;94532.22;;;;
2022/04/05 04:19:47;;;;;;;7;5.95;;;;;;;5.02;100;94532.22;;;;
2022/04/05 04:20:48;;;;;;;7;5.95;;;;;;;5.02;100;94532.22;;;;
2022/04/05 04:21:49;;;;;;;7;5.95;;;;;;;5.02;100;94532.22;;;;
2022/04/05 04:22:49;;;;;;;7;5.95;;;;;;;5.02;100;94532.22;;;;
2022/04/05 04:23:50;;;;;;;7;5.95;;;;;;;5.02;100;94532.22;;;;
2022/04/05 04:24:51;;;;;;;7;5.95;;;;;;;5.02;100;94532.22;;;;
2022/04/05 04:25:52;;;;;;;7;5.95;;;;;;;5.02;100;94532.22;;;;
2022/04/05 04:26:52;;;;;;;7;5.95;;;;;;;5.02;100;94532.22;;;;
2022/04/05 04:27:52;;;;;;;6.95;5.55;;;;;;;5.07;100;94511;;;;
2022/04/05 04:28:53;;;;;;;6.95;5.55;;;;;;;5.07;100;94511;;;;
2022/04/05 04:29:55;;;;;;;6.95;5.55;;;;;;;5.07;100;94511;;;;
2022/04/05 04:30:56;;;;;;;6.95;5.55;;;;;;;5.07;100;94511;;;;
2022/04/05 04:31:56;;;;;;;6.95;5.55;;;;;;;5.07;100;94511;;;;
2022/04/05 04:32:57;;;;;;;6.95;5.55;;;;;;;5.07;100;94511;;;;
2022/04/05 04:33:58;;;;;;;6.95;5.55;;;;;;;5.07;100;94511;;;;
2022/04/05 04:34:58;;;;;;;6.95;5.55;;;;;;;5.07;100;94511;;;;
2022/04/05 04:35:59;;;;;;;6.95;5.55;;;;;;;5.07;100;94511;;;;
2022/04/05 04:37:01;;;;;;;6.95;5.55;;;;;;;5.07;100;94511;;;;
2022/04/05 04:38:03;;;;;;;7.250001;5.85;;;;;;;5.14;100;94541.69;;;;
2022/04/05 04:39:05;;;;;;;7.250001;5.85;;;;;;;5.14;100;94541.69;;;;
2022/04/05 04:40:07;;;;;;;7.250001;5.85;;;;;;;5.14;100;94541.69;;;;
2022/04/05 04:41:09;;;;;;;7.250001;5.85;;;;;;;5.14;100;94541.69;;;;
2022/04/05 04:42:12;;;;;;;7.250001;5.85;;;;;;;5.14;100;94541.69;;;;
2022/04/05 04:43:12;;;;;;;7.250001;5.85;;;;;;;5.14;100;94541.69;;;;
2022/04/05 04:44:14;;;;;;;7.250001;5.85;;;;;;;5.14;100;94541.69;;;;
2022/04/05 04:45:15;;;;;;;7.250001;5.85;;;;;;;5.14;100;94541.69;;;;
2022/04/05 04:46:15;;;;;;;7.250001;5.85;;;;;;;5.14;100;94541.69;;;;
2022/04/05 04:47:17;;;;;;;7.250001;5.85;;;;;;;5.14;100;94541.69;;;;
2022/04/05 04:48:17;;;;;;;7.250001;5.85;;;;;;;5.14;100;94541.69;;;;
2022/04/05 04:49:18;;;;;;;8.1;6.050001;;;;;;;5.17;100;94520.25;;;;
2022/04/05 04:50:18;;;;;;;8.1;6.050001;;;;;;;5.17;100;94520.25;;;;
2022/04/05 04:51:19;;;;;;;8.1;6.050001;;;;;;;5.17;100;94520.25;;;;
2022/04/05 04:52:20;;;;;;;8.1;6.050001;;;;;;;5.17;100;94520.25;;;;
2022/04/05 04:53:21;;;;;;;8.1;6.050001;;;;;;;5.17;100;94520.25;;;;
2022/04/05 04:54:21;;;;;;;8.1;6.050001;;;;;;;5.17;100;94520.25;;;;
2022/04/05 04:55:23;;;;;;;8.1;6.050001;;;;;;;5.17;100;94520.25;;;;
2022/04/05 04:56:24;;;;;;;8.1;6.050001;;;;;;;5.17;100;94520.25;;;;
2022/04/05 04:57:25;;;;;;;8.1;6.050001;;;;;;;5.17;100;94520.25;;;;
2022/04/05 04:58:26;;;;;;;8.1;6.050001;;;;;;;5.17;100;94520.25;;;;
2022/04/05 04:59:26;;;;;;;7.75;6.45;;;;;;;5.22;100;94527.08;;;;
2022/04/05 05:00:27;;;;;;;7.75;6.45;;;;;;;5.22;100;94527.08;;;;
2022/04/05 05:01:28;;;;;;;7.75;6.45;;;;;;;5.22;100;94527.08;;;;
2022/04/05 05:02:28;;;;;;;7.75;6.45;;;;;;;5.22;100;94527.08;;;;
2022/04/05 05:03:29;;;;;;;7.75;6.45;;;;;;;5.22;100;94527.08;;;;
2022/04/05 05:04:30;;;;;;;7.75;6.45;;;;;;;5.22;100;94527.08;;;;
2022/04/05 05:05:30;;;;;;;7.75;6.45;;;;;;;5.22;100;94527.08;;;;
2022/04/05 05:06:31;;;;;;;7.75;6.45;;;;;;;5.22;100;94527.08;;;;
2022/04/05 05:07:31;;;;;;;7.75;6.45;;;;;;;5.22;100;94527.08;;;;
2022/04/05 05:08:32;;;;;;;7.75;6.45;;;;;;;5.22;100;94527.08;;;;
2022/04/05 05:09:33;;;;;;;7.75;6.45;;;;;;;5.22;100;94527.08;;;;
2022/04/05 05:10:34;;;;;;;7.800001;6.6;;;;;;;5.3;100;94533.91;;;;
2022/04/05 05:11:34;;;;;;;7.800001;6.6;;;;;;;5.3;100;94533.91;;;;
2022/04/05 05:12:35;;;;;;;7.800001;6.6;;;;;;;5.3;100;94533.91;;;;
2022/04/05 05:13:35;;;;;;;7.800001;6.6;;;;;;;5.3;100;94533.91;;;;
2022/04/05 05:14:36;;;;;;;7.800001;6.6;;;;;;;5.3;100;94533.91;;;;
2022/04/05 05:15:37;;;;;;;7.800001;6.6;;;;;;;5.3;100;94533.91;;;;
2022/04/05 05:16:37;;;;;;;7.800001;6.6;;;;;;;5.3;100;94533.91;;;;
2022/04/05 05:17:38;;;;;;;7.800001;6.6;;;;;;;5.3;100;94533.91;;;;
2022/04/05 05:18:38;;;;;;;7.800001;6.6;;;;;;;5.3;100;94533.91;;;;
2022/04/05 05:19:38;;;;;;;7.800001;6.6;;;;;;;5.3;100;94533.91;;;;
2022/04/05 05:20:39;;;;;;;8.65;6.550001;;;;;;;5.32;100;94536.24;;;;
2022/04/05 05:21:39;;;;;;;8.65;6.550001;;;;;;;5.32;100;94536.24;;;;
2022/04/05 05:22:40;;;;;;;8.65;6.550001;;;;;;;5.32;100;94536.24;;;;
2022/04/05 05:23:41;;;;;;;8.65;6.550001;;;;;;;5.32;100;94536.24;;;;
2022/04/05 05:24:42;;;;;;;8.65;6.550001;;;;;;;5.32;100;94536.24;;;;
2022/04/05 05:25:43;;;;;;;8.65;6.550001;;;;;;;5.32;100;94536.24;;;;
2022/04/05 05:26:43;;;;;;;8.65;6.550001;;;;;;;5.32;100;94536.24;;;;
2022/04/05 05:27:44;;;;;;;8.65;6.550001;;;;;;;5.32;100;94536.24;;;;
2022/04/05 05:28:44;;;;;;;8.65;6.550001;;;;;;;5.32;100;94536.24;;;;
2022/04/05 05:29:45;;;;;;;8.65;6.550001;;;;;;;5.32;100;94536.24;;;;
2022/04/05 05:30:46;;;;;;;8.65;6.550001;;;;;;;5.32;100;94536.24;;;;
2022/04/05 05:31:47;;;;;;;8.4;6.55;;;;;;;5.36;100;94552.28;;;;
2022/04/05 05:32:47;;;;;;;8.4;6.55;;;;;;;5.36;100;94552.28;;;;
2022/04/05 05:33:49;;;;;;;8.4;6.55;;;;;;;5.36;100;94552.28;;;;
2022/04/05 05:34:50;;;;;;;8.4;6.55;;;;;;;5.36;100;94552.28;;;;
2022/04/05 05:35:50;;;;;;;8.4;6.55;;;;;;;5.36;100;94552.28;;;;
2022/04/05 05:36:51;;;;;;;8.4;6.55;;;;;;;5.36;100;94552.28;;;;
2022/04/05 05:37:51;;;;;;;8.4;6.55;;;;;;;5.36;100;94552.28;;;;
2022/04/05 05:38:52;;;;;;;8.4;6.55;;;;;;;5.36;100;94552.28;;;;
2022/04/05 05:39:52;;;;;;;8.4;6.55;;;;;;;5.36;100;94552.28;;;;
2022/04/05 05:40:53;;;;;;;8.4;6.55;;;;;;;5.36;100;94552.28;;;;
2022/04/05 05:41:54;;;;;;;8.4;6.55;;;;;;;5.36;100;94552.28;;;;
2022/04/05 05:42:55;;;;;;;8.4;6.55;;;;;;;5.36;100;94552.28;;;;
2022/04/05 05:43:57;;;;;;;8.4;6.55;;;;;;;5.36;100;94552.28;;;;
2022/04/05 05:44:58;;;;;;;8.4;6.55;;;;;;;5.36;100;94552.28;;;;
2022/04/05 05:45:58;;;;;;;8.4;6.55;;;;;;;5.36;100;94552.28;;;;
2022/04/05 05:46:59;;;;;;;8.4;6.55;;;;;;;5.36;100;94552.28;;;;
2022/04/05 05:48:00;;;;;;;8.4;6.55;;;;;;;5.36;100;94552.28;;;;
2022/04/05 05:49:00;;;;;;;8.4;6.55;;;;;;;5.36;100;94552.28;;;;
2022/04/05 05:50:01;;;;;;;8.4;6.55;;;;;;;5.36;100;94552.28;;;;
2022/04/05 05:51:01;;;;;;;8.4;6.55;;;;;;;5.36;100;94552.28;;;;
2022/04/05 05:52:02;;;;;;;8.4;6.55;;;;;;;5.36;100;94552.28;;;;
2022/04/05 05:53:03;;;;;;;6.95;5.900001;;;;;;;5.55;100;94561.95;;;;
2022/04/05 05:54:04;;;;;;;6.95;5.900001;;;;;;;5.55;100;94561.95;;;;
2022/04/05 05:55:04;;;;;;;6.95;5.900001;;;;;;;5.55;100;94561.95;;;;
2022/04/05 05:56:05;;;;;;;6.95;5.900001;;;;;;;5.55;100;94561.95;;;;
2022/04/05 05:57:06;;;;;;;6.95;5.900001;;;;;;;5.55;100;94561.95;;;;
2022/04/05 05:58:07;;;;;;;6.95;5.900001;;;;;;;5.55;100;94561.95;;;;
2022/04/05 05:59:07;;;;;;;6.95;5.900001;;;;;;;5.55;100;94561.95;;;;
2022/04/05 06:00:08;;;;;;;6.95;5.900001;;;;;;;5.55;100;94561.95;;;;
2022/04/05 06:01:12;;;;;;;6.95;5.900001;;;;;;;5.55;100;94561.95;;;;
2022/04/05 06:02:12;;;;;;;6.95;5.900001;;;;;;;5.55;100;94561.95;;;;
2022/04/05 06:03:13;;;;;;;6.95;5.900001;;;;;;;5.55;100;94561.95;;;;
2022/04/05 06:04:14;;;;;;;7.55;5.849999;;;;;;;5.59;100;94584.06;;;;
2022/04/05 06:05:14;;;;;;;7.55;5.849999;;;;;;;5.59;100;94584.06;;;;
2022/04/05 06:06:15;;;;;;;7.55;5.849999;;;;;;;5.59;100;94584.06;;;;
2022/04/05 06:07:16;;;;;;;7.55;5.849999;;;;;;;5.59;100;94584.06;;;;